Time;durP1;ratioP1;P1;durP2;ratioP2;P2;SDS_P1;SDS_P2;PMS_P1;PMS_P2;Temp;Humidity;BMP_temperature;BMP_pressure;BME280_temperature;BME280_humidity;BME280_pressure;Samples;Min_cycle;Max_cycle;Signal;HPM_P1;HPM_P2
2022/03/14 00:01:15;;;;;;;9.60;7.10;;;;;;;;;;5089235;28;20040;-62
2022/03/14 00:03:50;;;;;;;8.82;6.57;;;;;;;;;;5090842;28;20052;-63
2022/03/14 00:06:17;;;;;;;10.18;7.03;;;;;;;;;;5090577;28;20387;-62
2022/03/14 00:08:45;;;;;;;8.68;6.68;;;;;;;;;;5090476;28;20418;-63
2022/03/14 00:11:14;;;;;;;9.07;6.80;;;;;;;;;;5090070;28;20043;-63
2022/03/14 00:13:43;;;;;;;8.95;6.68;;;9.90;99.90;;;;;;5090974;28;20114;-62
2022/03/14 00:16:09;;;;;;;8.18;6.05;;;;;;;;;;5090570;28;20406;-63
2022/03/14 00:18:36;;;;;;;10.27;6.50;;;;;;;;;;5090181;28;20036;-62
2022/03/14 00:21:02;;;;;;;8.77;6.05;;;10.10;99.90;;;;;;5088701;28;20048;-62
2022/03/14 00:23:28;;;;;;;9.65;7.20;;;;;;;;;;5089927;28;20097;-62
2022/03/14 00:25:54;;;;;;;8.43;6.32;;;;;;;;;;5090237;28;20078;-63
2022/03/14 00:28:21;;;;;;;7.78;6.05;;;;;;;;;;5089785;28;20585;-63
2022/03/14 00:30:47;;;;;;;8.95;5.80;;;;;;;;;;5090600;28;20391;-63
2022/03/14 00:33:13;;;;;;;7.57;5.45;;;;;;;;;;5089936;28;20036;-62
2022/03/14 00:35:40;;;;;;;6.65;5.18;;;;;;;;;;5090154;28;20391;-63
2022/03/14 00:38:06;;;;;;;6.18;4.78;;;;;;;;;;5090206;28;20082;-62
2022/03/14 00:40:32;;;;;;;8.38;5.65;;;;;;;;;;5089860;28;20043;-63
2022/03/14 00:42:58;;;;;;;6.45;4.68;;;;;;;;;;5090110;28;20032;-63
2022/03/14 00:45:25;;;;;;;7.60;5.72;;;;;;;;;;5089865;28;20141;-63
2022/03/14 00:47:51;;;;;;;8.13;5.60;;;;;;;;;;5090097;28;20378;-63
2022/03/14 00:50:17;;;;;;;6.60;4.80;;;;;;;;;;5090027;28;20032;-63
2022/03/14 00:52:43;;;;;;;7.05;4.85;;;;;;;;;;5088162;28;20444;-62
2022/03/14 00:55:09;;;;;;;5.90;4.85;;;;;;;;;;5090004;28;20040;-63
2022/03/14 00:57:35;;;;;;;5.95;4.43;;;;;;;;;;5089972;28;20115;-63
2022/03/14 01:00:01;;;;;;;5.35;3.97;;;;;;;;;;5089847;28;20440;-62
2022/03/14 01:02:27;;;;;;;5.68;4.45;;;;;;;;;;5089491;28;20417;-62
2022/03/14 01:04:53;;;;;;;5.47;4.18;;;;;;;;;;5089971;28;20116;-62
2022/03/14 01:07:20;;;;;;;4.85;3.90;;;;;;;;;;5089598;28;20123;-62
2022/03/14 01:09:46;;;;;;;5.72;3.95;;;;;;;;;;5089920;28;20129;-63
2022/03/14 01:12:12;;;;;;;5.00;3.88;;;;;;;;;;5091663;28;20248;-63
2022/03/14 01:14:39;;;;;;;7.25;3.97;;;;;;;;;;5093426;28;20067;-62
2022/03/14 01:17:05;;;;;;;6.57;4.13;;;;;;;;;;5094240;28;20036;-62
2022/03/14 01:19:31;;;;;;;5.32;3.63;;;;;;;;;;5094097;28;20044;-62
2022/03/14 01:21:57;;;;;;;3.78;3.28;;;;;;;;;;5093712;28;20544;-62
2022/03/14 01:24:24;;;;;;;4.55;3.70;;;;;;;;;;5094070;28;20044;-62
2022/03/14 01:26:51;;;;;;;4.63;3.70;;;;;;;;;;5093483;28;20062;-63
2022/03/14 01:29:17;;;;;;;5.22;3.60;;;;;;;;;;5093574;28;20442;-62
2022/03/14 01:31:44;;;;;;;4.70;4.20;;;;;;;;;;5092410;28;20032;-62
2022/03/14 01:34:10;;;;;;;4.20;3.38;;;;;;;;;;5093243;28;20028;-62
2022/03/14 01:36:36;;;;;;;4.20;3.22;;;;;;;;;;5093214;28;20071;-62
2022/03/14 01:39:03;;;;;;;4.35;3.58;;;;;;;;;;5093346;28;20371;-62
2022/03/14 01:41:29;;;;;;;4.30;3.50;;;;;;;;;;5090274;28;20058;-62
2022/03/14 01:43:56;;;;;;;4.60;3.40;;;;;;;;;;5093511;28;20040;-62
2022/03/14 01:46:22;;;;;;;4.18;3.30;;;;;;;;;;5093207;28;20047;-63
2022/03/14 01:48:48;;;;;;;4.38;3.10;;;;;;;;;;5092691;28;20067;-63
2022/03/14 01:51:16;;;;;;;3.83;3.30;;;;;;;;;;5092836;28;20036;-62
2022/03/14 01:53:43;;;;;;;4.55;3.55;;;;;;;;;;5093056;28;21413;-62
2022/03/14 01:56:12;;;;;;;5.43;3.70;;;;;;;;;;5093349;28;20042;-62
2022/03/14 01:58:38;;;;;;;3.35;3.03;;;;;;;;;;5092836;28;20502;-63
2022/03/14 02:01:05;;;;;;;3.40;2.97;;;;;;;;;;5092982;28;20058;-63
2022/03/14 02:03:31;;;;;;;5.00;3.17;;;;;;;;;;5092748;28;20044;-62
2022/03/14 02:05:58;;;;;;;4.43;3.33;;;;;;;;;;5091663;28;20028;-63
2022/03/14 02:08:24;;;;;;;4.07;3.08;;;;;;;;;;5093123;28;20517;-62
2022/03/14 02:10:50;;;;;;;4.30;3.08;;;;;;;;;;5092432;28;20059;-62
2022/03/14 02:13:16;;;;;;;4.00;3.35;;;;;;;;;;5093037;28;20078;-63
2022/03/14 02:15:42;;;;;;;4.07;3.08;;;;;;;;;;5092545;28;20040;-63
2022/03/14 02:18:08;;;;;;;3.35;2.67;;;;;;;;;;5092159;28;20042;-63
2022/03/14 02:20:35;;;;;;;3.60;2.75;;;;;;;;;;5093163;28;20118;-62
2022/03/14 02:23:01;;;;;;;4.40;3.65;;;;;;;;;;5091930;28;20494;-63
2022/03/14 02:25:27;;;;;;;4.38;3.22;;;;;;;;;;5092253;28;20043;-62
2022/03/14 02:27:53;;;;;;;4.10;3.10;;;;;;;;;;5092213;28;20044;-63
2022/03/14 02:30:21;;;;;;;3.85;2.92;;;;;;;;;;5092852;28;20387;-63
2022/03/14 02:32:48;;;;;;;4.63;3.10;;;;;;;;;;5092327;28;20036;-63
2022/03/14 02:35:14;;;;;;;3.00;2.70;;;;;;;;;;5092348;28;20062;-62
2022/03/14 02:37:41;;;;;;;4.95;3.00;;;;;;;;;;5091960;28;20043;-62
2022/03/14 02:40:07;;;;;;;6.50;3.20;;;;;;;;;;5090811;28;20409;-62
2022/03/14 02:42:33;;;;;;;3.90;2.90;;;;;;;;;;5091089;28;20051;-62
2022/03/14 02:45:01;;;;;;;3.42;2.80;;;;;;;;;;5091574;28;20157;-62
2022/03/14 02:47:27;;;;;;;4.40;2.70;;;;;;;;;;5092498;28;20472;-62
2022/03/14 02:49:53;;;;;;;3.63;2.72;;;;;;;;;;5091786;28;20063;-63
2022/03/14 02:52:19;;;;;;;3.95;2.80;;;;;;;;;;5092039;28;20044;-63
2022/03/14 02:54:45;;;;;;;3.55;2.72;;;;;;;;;;5090601;28;20048;-62
2022/03/14 02:57:11;;;;;;;3.17;2.67;;;;;;;;;;5091821;28;20051;-62
2022/03/14 02:59:37;;;;;;;2.92;2.58;;;;;;;;;;5090882;28;20048;-62
2022/03/14 03:02:05;;;;;;;3.75;2.60;;;;;;;;;;5090336;28;20058;-62
2022/03/14 03:04:32;;;;;;;3.85;2.35;;;;;;;;;;5091999;28;20040;-62
2022/03/14 03:06:58;;;;;;;3.05;2.45;;;;;;;;;;5092063;28;20070;-62
2022/03/14 03:09:26;;;;;;;3.15;2.70;;;;;;;;;;5091567;28;20075;-63
2022/03/14 03:11:53;;;;;;;3.85;2.60;;;10.20;99.90;;;;;;5090259;28;20040;-62
2022/03/14 03:14:19;;;;;;;2.85;2.40;;;;;;;;;;5091183;28;20186;-62
2022/03/14 03:16:45;;;;;;;2.45;2.25;;;;;;;;;;5091782;28;20054;-62
2022/03/14 03:19:11;;;;;;;3.22;2.58;;;;;;;;;;5090900;28;20032;-62
2022/03/14 03:21:39;;;;;;;3.20;2.90;;;;;;;;;;5091674;28;20036;-63
2022/03/14 03:24:07;;;;;;;3.22;2.78;;;10.30;99.90;;;;;;5091185;28;20077;-62
2022/03/14 03:26:34;;;;;;;2.65;2.35;;;;;;;;;;5091488;28;20085;-62
2022/03/14 03:29:00;;;;;;;3.40;2.75;;;;;;;;;;5091404;28;20044;-62
2022/03/14 03:31:28;;;;;;;3.40;2.65;;;;;;;;;;5091799;28;20404;-62
2022/03/14 03:33:54;;;;;;;2.85;2.08;;;;;;;;;;5091392;28;20176;-62
2022/03/14 03:36:20;;;;;;;5.35;2.80;;;;;;;;;;5090974;28;20529;-62
2022/03/14 03:38:46;;;;;;;3.53;2.60;;;;;;;;;;5091319;28;20128;-62
2022/03/14 03:41:12;;;;;;;3.22;2.85;;;;;;;;;;5090660;28;20401;-63
2022/03/14 03:43:38;;;;;;;2.83;2.50;;;;;;;;;;5089620;28;20043;-62
2022/03/14 03:46:04;;;;;;;3.30;2.60;;;;;;;;;;5091049;28;20082;-62
2022/03/14 03:48:30;;;;;;;3.20;2.70;;;;;;;;;;5090793;28;20079;-63
2022/03/14 03:50:56;;;;;;;3.42;3.00;;;;;;;;;;5091085;28;20032;-62
2022/03/14 03:53:22;;;;;;;3.45;2.42;;;;;;;;;;5090188;28;20100;-63
2022/03/14 03:55:48;;;;;;;3.17;2.55;;;;;;;;;;5090946;28;20137;-62
2022/03/14 03:58:14;;;;;;;5.13;2.60;;;;;;;;;;5090417;28;20032;-62
2022/03/14 04:00:41;;;;;;;2.80;2.50;;;;;;;;;;5090533;28;20141;-63
2022/03/14 04:03:08;;;;;;;2.72;2.50;;;;;;;;;;5090823;28;20044;-63
2022/03/14 04:05:41;;;;;;;2.80;2.50;;;;;;;;;;5090655;28;20063;-62
2022/03/14 04:08:11;;;;;;;3.17;2.63;;;;;;;;;;5090660;28;20047;-62
2022/03/14 04:10:43;;;;;;;2.47;2.25;;;;;;;;;;5090124;28;20055;-62
2022/03/14 04:13:10;;;;;;;3.13;2.70;;;;;;;;;;5089224;28;20044;-62
2022/03/14 04:18:32;;;;;;;4.45;2.50;;;;;;;;;;5047779;28;20044;-62
2022/03/14 04:21:00;;;;;;;3.25;2.88;;;;;;;;;;5048206;28;20556;-63
2022/03/14 04:23:28;;;;;;;3.08;2.63;;;;;;;;;;5047590;28;20474;-62
2022/03/14 04:25:54;;;;;;;3.83;2.97;;;;;;;;;;5047832;28;20052;-62
2022/03/14 04:28:20;;;;;;;3.40;2.83;;;;;;;;;;5047214;28;20059;-63
2022/03/14 04:30:46;;;;;;;3.00;2.53;;;;;;;;;;5047972;28;20052;-62
2022/03/14 04:33:12;;;;;;;2.95;2.53;;;;;;;;;;5047627;28;20487;-63
2022/03/14 04:35:39;;;;;;;3.92;2.70;;;;;;;;;;5047478;28;20119;-62
2022/03/14 04:38:07;;;;;;;3.63;2.60;;;;;;;;;;5047746;28;20037;-63
2022/03/14 04:40:33;;;;;;;3.20;2.60;;;;;;;;;;5047564;28;20063;-62
2022/03/14 04:43:04;;;;;;;2.67;2.47;;;;;;;;;;5047520;28;20571;-62
2022/03/14 04:45:30;;;;;;;3.13;2.58;;;;;;;;;;5047520;28;20450;-63
2022/03/14 04:47:57;;;;;;;3.72;2.38;;;;;;;;;;5046643;28;20052;-62
2022/03/14 04:50:23;;;;;;;2.50;2.20;;;;;;;;;;5047364;28;20087;-62
2022/03/14 04:52:49;;;;;;;3.42;2.65;;;;;;;;;;5047209;28;20033;-63
2022/03/14 04:55:15;;;;;;;3.28;2.60;;;;;;;;;;5061993;28;20429;-62
2022/03/14 04:57:41;;;;;;;2.63;2.35;;;;;;;;;;5088435;28;20479;-63
2022/03/14 05:00:08;;;;;;;3.38;3.08;;;;;;;;;;5090747;28;20032;-62
2022/03/14 05:02:34;;;;;;;2.63;2.20;;;;;;;;;;5089868;28;20032;-62
2022/03/14 05:05:00;;;;;;;4.50;2.45;;;;;;;;;;5089768;28;20101;-62
2022/03/14 05:07:26;;;;;;;3.63;2.50;;;;;;;;;;5090124;28;20127;-62
2022/03/14 05:09:52;;;;;;;3.38;2.35;;;;;;;;;;5089563;28;20043;-62
2022/03/14 05:12:19;;;;;;;3.13;2.58;;;;;;;;;;5088601;28;20043;-62
2022/03/14 05:14:45;;;;;;;2.90;2.40;;;;;;;;;;5089471;28;20039;-62
2022/03/14 05:17:11;;;;;;;3.20;2.90;;;;;;;;;;5090070;28;20036;-62
2022/03/14 05:19:37;;;;;;;3.22;2.80;;;;;;;;;;5089444;28;20131;-62
2022/03/14 05:22:03;;;;;;;3.13;2.50;;;;;;;;;;5090131;28;20574;-62
2022/03/14 05:24:30;;;;;;;3.03;2.60;;;;;;;;;;5089485;28;20096;-62
2022/03/14 05:26:57;;;;;;;2.60;2.33;;;;;;;;;;5088297;28;20402;-62
2022/03/14 05:29:23;;;;;;;2.80;2.33;;;;;;;;;;5089809;28;20525;-62
2022/03/14 05:31:49;;;;;;;2.92;2.63;;;;;;;;;;5089278;28;20032;-63
2022/03/14 05:34:16;;;;;;;4.00;2.80;;;;;;;;;;5089985;28;20036;-62
2022/03/14 05:36:42;;;;;;;2.95;2.63;;;;;;;;;;5089386;28;20123;-62
2022/03/14 05:39:09;;;;;;;3.40;2.13;;;;;;;;;;5089653;28;20398;-62
2022/03/14 05:41:35;;;;;;;3.35;2.80;;;;;;;;;;5089674;28;20075;-62
2022/03/14 05:44:02;;;;;;;3.30;2.80;;;;;;;;;;5089342;28;20422;-62
2022/03/14 05:46:28;;;;;;;3.20;2.85;;;;;;;;;;5088798;28;20033;-62
2022/03/14 05:48:54;;;;;;;3.33;2.60;;;;;;;;;;5089207;28;20043;-62
2022/03/14 05:51:20;;;;;;;3.50;3.10;;;;;;;;;;5089223;28;20036;-62
2022/03/14 05:53:46;;;;;;;3.45;3.13;;;;;;;;;;5088896;28;20104;-62
2022/03/14 05:56:12;;;;;;;2.97;2.70;;;;;;;;;;5089297;28;20080;-62
2022/03/14 05:58:38;;;;;;;3.63;3.28;;;;;;;;;;5090277;28;20097;-62
2022/03/14 06:01:04;;;;;;;3.10;2.80;;;;;;;;;;5092192;28;20433;-62
2022/03/14 06:03:30;;;;;;;4.38;3.17;;;;;;;;;;5093275;28;20471;-63
2022/03/14 06:05:56;;;;;;;5.05;3.78;;;;;;;;;;5093316;28;20093;-62
2022/03/14 06:08:22;;;;;;;4.07;3.00;;;;;;;;;;5092037;28;20040;-62
2022/03/14 06:10:48;;;;;;;3.20;2.88;;;;;;;;;;5092942;28;20405;-62
2022/03/14 06:13:15;;;;;;;3.60;2.75;;;9.70;99.90;;;;;;5092695;28;20032;-63
2022/03/14 06:15:41;;;;;;;4.80;3.10;;;;;;;;;;5092906;28;20040;-62
2022/03/14 06:18:08;;;;;;;4.28;3.20;;;;;;;;;;5093032;28;20043;-62
2022/03/14 06:20:34;;;;;;;4.93;3.65;;;;;;;;;;5093137;28;20405;-62
2022/03/14 06:23:00;;;;;;;4.18;3.50;;;;;;;;;;5092992;28;20055;-62
2022/03/14 06:25:26;;;;;;;3.67;3.00;;;;;;;;;;5092700;28;20028;-63
2022/03/14 06:27:52;;;;;;;3.45;3.15;;;;;;;;;;5092447;28;20032;-62
2022/03/14 06:30:19;;;;;;;4.30;3.53;;;;;;;;;;5092606;28;20040;-63
2022/03/14 06:32:47;;;;;;;4.13;3.30;;;;;;;;;;5091368;28;20127;-62
2022/03/14 06:35:14;;;;;;;5.47;3.70;;;;;;;;;;5092825;28;20044;-62
2022/03/14 06:37:40;;;;;;;4.35;3.45;;;;;;;;;;5093004;28;20044;-63
2022/03/14 06:40:06;;;;;;;3.55;3.08;;;;;;;;;;5092850;28;20494;-63
2022/03/14 06:42:32;;;;;;;4.88;4.38;;;;;;;;;;5091533;28;20402;-63
2022/03/14 06:45:02;;;;;;;5.28;3.40;;;;;;;;;;5092547;28;20052;-62
2022/03/14 06:47:28;;;;;;;4.60;3.60;;;;;;;;;;5092532;28;20047;-63
2022/03/14 06:49:54;;;;;;;4.10;3.63;;;;;;;;;;5092592;28;20085;-63
2022/03/14 06:52:20;;;;;;;4.30;3.47;;;;;;;;;;5090422;28;22240;-63
2022/03/14 06:54:46;;;;;;;3.97;3.13;;;;;;;;;;5092063;28;20048;-63
2022/03/14 06:57:12;;;;;;;4.07;3.60;;;;;;;;;;5092480;28;20139;-63
2022/03/14 06:59:38;;;;;;;3.47;3.08;;;;;;;;;;5092510;28;20040;-63
2022/03/14 07:02:05;;;;;;;4.97;3.78;;;;;;;;;;5091340;28;20048;-64
2022/03/14 07:04:31;;;;;;;5.65;3.78;;;;;;;;;;5091939;28;20123;-62
2022/03/14 07:07:01;;;;;;;4.30;3.70;;;;;;;;;;5090080;28;20047;-63
2022/03/14 07:09:27;;;;;;;4.18;3.78;;;;;;;;;;5091387;28;20103;-63
2022/03/14 07:11:53;;;;;;;5.45;3.60;;;;;;;;;;5092399;28;20504;-62
2022/03/14 07:14:22;;;;;;;4.53;3.70;;;;;;;;;;5092116;28;20496;-62
2022/03/14 07:16:49;;;;;;;4.18;3.70;;;;;;;;;;5092062;28;20063;-63
2022/03/14 07:19:15;;;;;;;4.35;3.67;;;;;;;;;;5090397;28;20047;-63
2022/03/14 07:21:41;;;;;;;5.30;3.92;;;;;;;;;;5092352;28;20089;-63
2022/03/14 07:24:08;;;;;;;4.53;3.88;;;;;;;;;;5091803;28;20375;-62
2022/03/14 07:26:34;;;;;;;4.35;3.75;;;;;;;;;;5091691;28;20036;-63
2022/03/14 07:29:01;;;;;;;4.35;3.95;;;;;;;;;;5091450;28;20039;-63
2022/03/14 07:31:27;;;;;;;6.05;4.00;;;;;;;;;;5090019;28;20040;-62
2022/03/14 07:33:53;;;;;;;4.93;3.53;;;;;;;;;;5091915;28;20032;-62
2022/03/14 07:36:19;;;;;;;6.10;4.30;;;;;;;;;;5091255;28;20035;-62
2022/03/14 07:38:45;;;;;;;6.32;3.80;;;;;;;;;;5090948;28;20131;-63
2022/03/14 07:41:12;;;;;;;4.82;4.05;;;;;;;;;;5091682;28;20036;-63
2022/03/14 07:43:38;;;;;;;5.07;4.15;;;;;;;;;;5091200;28;20040;-63
2022/03/14 07:46:04;;;;;;;4.95;4.25;;;;;;;;;;5091711;28;20036;-62
2022/03/14 07:48:31;;;;;;;4.78;4.00;;;;;;;;;;5089603;28;20043;-63
2022/03/14 07:50:57;;;;;;;5.47;4.43;;;;;;;;;;5090808;28;20036;-63
2022/03/14 07:53:23;;;;;;;5.00;4.50;;;;;;;;;;5090707;28;20032;-63
2022/03/14 07:55:49;;;;;;;5.65;4.32;;;;;;;;;;5091312;28;20052;-63
2022/03/14 07:58:15;;;;;;;4.90;4.25;;;;;;;;;;5091259;28;20036;-62
2022/03/14 08:00:41;;;;;;;4.90;4.40;;;;;;;;;;5089671;28;20059;-62
2022/03/14 08:03:07;;;;;;;5.68;5.07;;;;;;;;;;5089790;28;20068;-62
2022/03/14 08:05:34;;;;;;;5.68;4.90;;;;;;;;;;5090915;28;20044;-62
2022/03/14 08:08:02;;;;;;;5.20;4.47;;;;;;;;;;5090669;28;20043;-62
2022/03/14 08:10:29;;;;;;;5.93;5.22;;;;;;;;;;5090227;28;20040;-62
2022/03/14 08:12:56;;;;;;;5.50;4.78;;;;;;;;;;5090997;28;20500;-62
2022/03/14 08:15:24;;;;;;;6.43;5.50;;;;;;;;;;5090919;28;20032;-62
2022/03/14 08:17:51;;;;;;;7.65;6.00;;;;;;;;;;5089555;28;20071;-63
2022/03/14 08:20:19;;;;;;;8.70;6.75;;;;;;;;;;5090837;28;20111;-62
2022/03/14 08:22:45;;;;;;;13.73;11.02;;;;;;;;;;5090052;28;20059;-62
2022/03/14 08:25:11;;;;;;;14.85;10.70;;;;;;;;;;5091182;28;20454;-62
2022/03/14 08:27:38;;;;;;;14.27;11.48;;;;;;;;;;5090665;28;20498;-62
2022/03/14 08:30:04;;;;;;;18.13;12.70;;;;;;;;;;5089964;28;20063;-62
2022/03/14 08:32:32;;;;;;;19.65;13.73;;;;;;;;;;5090727;28;20055;-62
2022/03/14 08:34:58;;;;;;;18.08;12.98;;;;;;;;;;5089555;28;20064;-63
2022/03/14 08:37:24;;;;;;;17.02;14.13;;;;;;;;;;5090416;28;20127;-62
2022/03/14 08:39:50;;;;;;;16.05;12.50;;;;;;;;;;5090581;28;20044;-61
2022/03/14 08:42:16;;;;;;;20.67;13.25;;;;;;;;;;5090331;28;20427;-62
2022/03/14 08:44:42;;;;;;;19.13;12.02;;;;;;;;;;5090195;28;20127;-63
2022/03/14 08:47:11;;;;;;;16.15;10.68;;;;;;;;;;5090333;28;20077;-62
2022/03/14 08:49:38;;;;;;;19.90;11.57;;;;;;;;;;5090549;28;20036;-62
2022/03/14 08:52:04;;;;;;;14.30;10.15;;;;;;;;;;5088278;28;20096;-62
2022/03/14 08:54:30;;;;;;;17.08;9.52;;;;;;;;;;5089981;28;20511;-62
2022/03/14 08:56:56;;;;;;;12.80;8.48;;;;;;;;;;5090116;28;20036;-62
2022/03/14 08:59:22;;;;;;;10.23;7.25;;;;;;;;;;5090462;28;20493;-62
2022/03/14 09:01:48;;;;;;;12.55;7.65;;;;;;;;;;5089950;28;20075;-63
2022/03/14 09:04:14;;;;;;;14.23;7.63;;;;;;;;;;5088371;28;20108;-63
2022/03/14 09:06:42;;;;;;;13.55;7.55;;;;;;;;;;5090031;28;20044;-62
2022/03/14 09:09:08;;;;;;;16.83;9.98;;;;;;;;;;5089539;28;20040;-63
2022/03/14 09:11:34;;;;;;;20.02;12.00;;;;;;;;;;5089596;28;20086;-62
2022/03/14 09:14:00;;;;;;;25.73;13.20;;;;;;;;;;5089943;28;20508;-63
2022/03/14 09:16:27;;;;;;;23.60;13.45;;;;;;;;;;5090073;28;20421;-62
2022/03/14 09:18:53;;;;;;;28.10;14.18;;;;;;;;;;5089773;28;20070;-63
2022/03/14 09:21:19;;;;;;;22.10;14.27;;;;;;;;;;5090095;28;20066;-63
2022/03/14 09:23:46;;;;;;;24.42;12.73;;;;;;;;;;5085671;28;20044;-63
2022/03/14 09:26:12;;;;;;;21.08;13.18;;;;;;;;;;5086664;28;20089;-62
2022/03/14 09:28:44;;;;;;;27.35;12.95;;;;;;;;;;5087534;28;20063;-62
2022/03/14 09:31:10;;;;;;;20.77;12.35;;;;;;;;;;5087453;28;20040;-62
2022/03/14 09:33:36;;;;;;;19.52;11.23;;;;;;;;;;5091854;28;20074;-62
2022/03/14 09:36:02;;;;;;;25.73;11.75;;;;;;;;;;5092037;28;20515;-62
2022/03/14 09:38:29;;;;;;;16.65;9.02;;;;;;;;;;5093666;28;20044;-62
2022/03/14 09:40:57;;;;;;;17.67;9.30;;;8.80;99.90;;;;;;5093501;28;20032;-62
2022/03/14 09:43:25;;;;;;;19.15;8.85;;;;;;;;;;5092938;28;20044;-62
2022/03/14 09:45:52;;;;;;;19.50;8.60;;;;;;;;;;5090850;28;20043;-62
2022/03/14 09:48:18;;;;;;;20.35;8.40;;;;;;;;;;5093013;28;20068;-62
2022/03/14 09:50:45;;;;;;;16.15;8.38;;;8.90;99.90;;;;;;5093407;28;20043;-62
2022/03/14 09:53:14;;;;;;;18.33;8.35;;;8.80;99.90;;;;;;5090429;28;20482;-62
2022/03/14 09:55:41;;;;;;;18.10;8.27;;;;;;;;;;5091530;28;20056;-62
2022/03/14 09:58:11;;;;;;;14.93;8.02;;;;;;;;;;5092030;28;20055;-61
2022/03/14 10:00:37;;;;;;;13.82;6.97;;;;;;;;;;5093217;28;20047;-63
2022/03/14 10:03:04;;;;;;;16.13;7.25;;;;;;;;;;5092838;28;20371;-62
2022/03/14 10:05:30;;;;;;;13.80;6.20;;;;;;;;;;5092570;28;20401;-62
2022/03/14 10:07:56;;;;;;;15.73;6.80;;;;;;;;;;5092887;28;20081;-62
2022/03/14 10:10:22;;;;;;;18.02;5.80;;;;;;;;;;5093221;28;20070;-62
2022/03/14 10:12:53;;;;;;;15.98;6.25;;;;;;;;;;5092951;28;20390;-62
2022/03/14 10:15:19;;;;;;;13.85;6.63;;;;;;;;;;5091437;28;20050;-62
2022/03/14 10:17:45;;;;;;;13.13;5.88;;;;;;;;;;5092200;28;20497;-62
2022/03/14 10:20:11;;;;;;;16.48;6.40;;;;;;;;;;5093216;28;20127;-63
2022/03/14 10:22:39;;;;;;;14.07;5.80;;;9.10;99.90;;;;;;5093746;28;20036;-62
2022/03/14 10:25:09;;;;;;;14.63;6.20;;;;;;;;;;5091790;28;20126;-62
2022/03/14 10:27:37;;;;;;;9.10;5.10;;;;;;;;;;5093384;28;20186;-62
2022/03/14 10:30:04;;;;;;;14.23;6.43;;;;;;;;;;5093167;28;20070;-63
2022/03/14 10:32:30;;;;;;;11.73;5.40;;;;;;;;;;5092858;28;20054;-62
2022/03/14 10:34:59;;;;;;;13.68;5.18;;;9.40;99.90;;;;;;5093043;28;20071;-62
2022/03/14 10:37:28;;;;;;;12.38;4.93;;;;;;;;;;5092823;28;20567;-62
2022/03/14 10:39:58;;;;;;;12.68;3.92;;;;;;;;;;5093274;28;20494;-62
2022/03/14 10:42:24;;;;;;;11.75;3.67;;;;;;;;;;5092771;28;20044;-62
2022/03/14 10:44:51;;;;;;;11.40;4.50;;;;;;;;;;5092249;28;20040;-63
2022/03/14 10:47:19;;;;;;;15.57;5.68;;;;;;;;;;5092614;28;20375;-62
2022/03/14 10:49:45;;;;;;;12.05;4.40;;;;;;;;;;5092725;28;20114;-62
2022/03/14 10:52:18;;;;;;;10.27;3.53;;;;;;;;;;5091728;28;20028;-62
2022/03/14 10:54:44;;;;;;;;;;;;;;;;;;5093046;28;20078;-62
2022/03/14 10:57:30;;;;;;;13.02;3.90;;;;;;;;;;5092598;28;19920;-62
2022/03/14 10:59:56;;;;;;;13.10;4.43;;;;;;;;;;5092844;28;20158;-62
2022/03/14 11:02:26;;;;;;;8.65;3.33;;;;;;;;;;5092531;28;20469;-62
2022/03/14 11:04:54;;;;;;;13.23;4.30;;;;;;;;;;5092682;28;20040;-62
2022/03/14 11:07:21;;;;;;;9.38;3.72;;;;;;;;;;5092162;28;20100;-62
2022/03/14 11:09:48;;;;;;;14.82;5.00;;;;;;;;;;5092313;28;20032;-62
2022/03/14 11:12:19;;;;;;;10.85;5.10;;;9.90;99.90;;;;;;5092408;28;20394;-62
2022/03/14 11:14:57;;;;;;;11.63;5.38;;;9.70;99.90;;;;;;5092357;28;20028;-62
2022/03/14 11:17:23;;;;;;;12.57;5.43;;;;;;;;;;5092339;28;20047;-63
2022/03/14 11:19:49;;;;;;;15.00;6.07;;;;;;;;;;5092212;28;20040;-62
2022/03/14 11:22:16;;;;;;;15.32;6.43;;;;;;;;;;5092516;28;20189;-62
2022/03/14 11:24:44;;;;;;;14.80;5.97;;;;;;;;;;5090699;28;20093;-63
2022/03/14 11:27:41;;;;;;;9.10;5.70;;;10.40;99.90;;;;;;5092190;28;20036;-62
2022/03/14 11:30:11;;;;;;;11.75;5.78;;;10.40;99.90;;;;;;5009898;28;20050;-62
2022/03/14 11:32:38;;;;;;;10.80;5.95;;;;;;;;;;5009515;28;20041;-63
2022/03/14 11:35:04;;;;;;;13.10;6.70;;;;;;;;;;5009885;28;20591;-62
2022/03/14 11:37:31;;;;;;;14.65;8.23;;;;;;;;;;5009610;28;20033;-62
2022/03/14 11:39:59;;;;;;;15.18;7.65;;;10.50;99.90;;;;;;5009707;28;20504;-62
2022/03/14 11:42:25;;;;;;;13.10;7.93;;;;;;;;;;5009862;28;20065;-63
2022/03/14 11:44:51;;;;;;;16.65;8.65;;;;;;;;;;5009612;28;20445;-62
2022/03/14 11:47:19;;;;;;;15.68;9.57;;;10.40;99.90;;;;;;5009497;28;20072;-62
2022/03/14 11:49:45;;;;;;;17.23;9.90;;;;;;;;;;5009295;28;20063;-62
2022/03/14 11:52:19;;;;;;;18.17;9.98;;;10.30;99.90;;;;;;4993054;28;20048;-63
2022/03/14 11:54:48;;;;;;;16.48;10.23;;;;;;;;;;5009097;28;20129;-63
2022/03/14 11:57:14;;;;;;;17.30;10.65;;;;;;;;;;5008600;28;20128;-62
2022/03/14 11:59:40;;;;;;;18.65;11.63;;;;;;;;;;5009183;28;20049;-62
2022/03/14 12:02:07;;;;;;;17.35;10.57;;;;;;;;;;5009476;28;20045;-62
2022/03/14 12:04:33;;;;;;;17.35;11.88;;;;;;;;;;4993042;28;20042;-62
2022/03/14 12:06:59;;;;;;;18.15;12.35;;;;;;;;;;5067730;28;20046;-62
2022/03/14 12:09:27;;;;;;;23.27;12.32;;;;;;;;;;5091685;28;20462;-62
2022/03/14 12:12:19;;;;;;;20.15;12.50;;;10.90;99.90;;;;;;5091386;28;20035;-62
2022/03/14 12:14:46;;;;;;;17.95;12.27;;;;;;;;;;5080712;28;20448;-63
2022/03/14 12:17:15;;;;;;;19.35;11.80;;;;;;;;;;5091312;28;20044;-62
2022/03/14 12:19:44;;;;;;;19.95;12.70;;;;;;;;;;5091016;28;20545;-63
2022/03/14 12:22:16;;;;;;;20.85;12.70;;;11.40;99.90;;;;;;5091258;28;20462;-62
2022/03/14 12:24:46;;;;;;;18.37;12.07;;;;;;;;;;5090936;28;20044;-62
2022/03/14 12:27:19;;;;;;;19.20;11.43;;;;;;;;;;5091110;28;20043;-62
2022/03/14 12:29:46;;;;;;;20.90;10.68;;;;;;;;;;5090898;28;20040;-62
2022/03/14 12:32:24;;;;;;;20.08;11.13;;;;;;;;;;5091123;28;20035;-62
2022/03/14 12:34:57;;;;;;;17.17;10.70;;;;;;;;;;5090750;28;20090;-62
2022/03/14 12:37:35;;;;;;;17.33;9.93;;;;;;;;;;5090930;28;20135;-62
2022/03/14 12:40:14;;;;;;;21.00;9.77;;;12.10;99.90;;;;;;5091000;28;20036;-62
2022/03/14 12:42:43;;;;;;;16.85;9.10;;;12.10;99.90;;;;;;5090863;28;20493;-63
2022/03/14 12:45:15;;;;;;;18.65;9.85;;;;;;;;;;5090893;28;21093;-63
2022/03/14 12:47:51;;;;;;;15.10;9.57;;;;;;;;;;5090626;28;20072;-62
2022/03/14 12:50:48;;;;;;;17.08;9.32;;;12.20;99.90;;;;;;5072843;28;20039;-62
2022/03/14 12:53:20;;;;;;;17.27;8.88;;;;;;;;;;5090638;28;20036;-62
2022/03/14 12:55:50;;;;;;;19.13;9.50;;;12.40;99.90;;;;;;5090346;28;20136;-62
2022/03/14 12:58:21;;;;;;;23.05;9.75;;;12.30;99.90;;;;;;5089348;28;20036;-62
2022/03/14 13:00:47;;;;;;;19.05;10.05;;;;;;;;;;5090750;28;20122;-62
2022/03/14 13:03:19;;;;;;;20.48;9.35;;;;;;;;;;5090727;28;20117;-63
2022/03/14 13:05:45;;;;;;;;;;;12.10;99.90;;;;;;5090989;28;20040;-63
2022/03/14 13:08:11;;;;;;;17.33;10.15;;;;;;;;;;5092026;28;20045;-62
2022/03/14 13:10:42;;;;;;;17.98;9.43;;;12.90;99.90;;;;;;5094738;28;20044;-63
2022/03/14 13:13:09;;;;;;;18.40;8.63;;;13.30;99.90;;;;;;5094724;28;20032;-62
2022/03/14 13:15:37;;;;;;;13.57;7.53;;;;;;;;;;5094952;28;20032;-62
2022/03/14 13:18:03;;;;;;;14.00;7.47;;;;;;;;;;5094695;28;20648;-63
2022/03/14 13:20:29;;;;;;;14.52;7.65;;;;;;;;;;5094738;28;20116;-63
2022/03/14 13:22:56;;;;;;;13.68;8.35;;;13.80;99.90;;;;;;5094217;28;20044;-63
2022/03/14 13:25:35;;;;;;;17.40;9.73;;;14.00;99.90;;;;;;5094688;28;20073;-62
2022/03/14 13:28:02;;;;;;;16.85;9.02;;;;;;;;;;5094486;28;20398;-62
2022/03/14 13:30:44;;;;;;;15.50;9.15;;;13.60;99.90;;;;;;5094593;28;20040;-63
2022/03/14 13:33:23;;;;;;;;;;;13.30;99.90;;;;;;5094614;28;20054;-62
2022/03/14 13:35:49;;;;;;;16.30;8.77;;;;;;;;;;5094648;28;19920;-62
2022/03/14 13:38:27;;;;;;;18.05;8.75;;;;;;;;;;5094224;28;20036;-63
2022/03/14 13:40:55;;;;;;;17.30;8.77;;;;;;;;;;5094154;28;20047;-62
2022/03/14 13:43:21;;;;;;;20.73;9.00;;;;;;;;;;5094156;28;20062;-62
2022/03/14 13:45:47;;;;;;;13.98;8.80;;;;;;;;;;5094094;28;20055;-63
2022/03/14 13:48:21;;;;;;;18.95;8.75;;;14.80;99.90;;;;;;5093606;28;20093;-63
2022/03/14 13:50:47;;;;;;;17.80;8.65;;;15.30;99.90;;;;;;5094041;28;20044;-62
2022/03/14 13:53:21;;;;;;;18.25;9.35;;;15.30;99.90;;;;;;5092762;28;20048;-63
2022/03/14 13:55:53;;;;;;;14.57;7.18;;;;;;;;;;5093722;28;20059;-63
2022/03/14 13:58:28;;;;;;;15.70;7.80;;;;;;;;;;5093495;28;20114;-63
2022/03/14 14:00:54;;;;;;;17.58;8.23;;;;;;;;;;5093865;28;20044;-62
2022/03/14 14:03:25;;;;;;;17.13;7.97;;;14.50;99.90;;;;;;5093479;28;20085;-63
2022/03/14 14:05:51;;;;;;;14.15;7.18;;;;;;;;;;5094274;28;20042;-63
2022/03/14 14:08:31;;;;;;;15.27;7.80;;;;;;;;;;5093362;28;20082;-62
2022/03/14 14:10:58;;;;;;;17.90;7.65;;;;;;;;;;5092380;28;20395;-62
2022/03/14 14:13:26;;;;;;;13.65;6.15;;;;;;;;;;5093715;28;20043;-63
2022/03/14 14:15:53;;;;;;;15.98;6.30;;;;;;;;;;5093549;28;20048;-63
2022/03/14 14:18:23;;;;;;;13.38;5.53;;;14.80;99.90;;;;;;5093392;28;20048;-63
2022/03/14 14:20:51;;;;;;;14.45;6.25;;;;;;;;;;5092451;28;20105;-62
2022/03/14 14:23:19;;;;;;;10.52;5.25;;;14.30;99.90;;;;;;5091933;28;20123;-63
2022/03/14 14:25:48;;;;;;;15.38;5.72;;;13.90;99.90;;;;;;5093525;28;20094;-63
2022/03/14 14:28:14;;;;;;;15.35;5.15;;;;;;;;;;5091102;28;20056;-63